sensor_id;sensor_type;location;lat;lon;timestamp;pressure;altitude;pressure_sealevel;temperature;humidity
3748;BME280;1889;50.058;8.688;2022-08-19T00:00:10;99817.42;;;24.00;54.77
3748;BME280;1889;50.058;8.688;2022-08-19T00:02:41;99812.77;;;23.96;54.86
3748;BME280;1889;50.058;8.688;2022-08-19T00:05:13;99818.28;;;24.06;54.55
3748;BME280;1889;50.058;8.688;2022-08-19T00:07:44;99825.95;;;23.93;54.86
3748;BME280;1889;50.058;8.688;2022-08-19T00:10:15;99823.78;;;23.99;54.74
3748;BME280;1889;50.058;8.688;2022-08-19T00:12:45;99820.11;;;24.00;54.64
3748;BME280;1889;50.058;8.688;2022-08-19T00:15:16;99817.02;;;23.82;55.25
3748;BME280;1889;50.058;8.688;2022-08-19T00:17:47;99813.22;;;23.84;55.19
3748;BME280;1889;50.058;8.688;2022-08-19T00:20:18;99810.63;;;23.77;55.50
3748;BME280;1889;50.058;8.688;2022-08-19T00:22:48;99815.56;;;23.83;55.25
3748;BME280;1889;50.058;8.688;2022-08-19T00:25:17;99806.86;;;23.74;55.59
3748;BME280;1889;50.058;8.688;2022-08-19T00:27:46;99804.77;;;23.67;55.89
3748;BME280;1889;50.058;8.688;2022-08-19T00:30:15;99795.36;;;23.72;55.69
3748;BME280;1889;50.058;8.688;2022-08-19T00:32:45;99802.23;;;23.87;55.24
3748;BME280;1889;50.058;8.688;2022-08-19T00:35:14;99801.03;;;23.91;55.19
3748;BME280;1889;50.058;8.688;2022-08-19T00:37:43;99792.70;;;23.94;55.10
3748;BME280;1889;50.058;8.688;2022-08-19T00:40:12;99786.59;;;23.81;55.43
3748;BME280;1889;50.058;8.688;2022-08-19T00:42:41;99782.30;;;23.79;55.54
3748;BME280;1889;50.058;8.688;2022-08-19T00:45:18;99783.38;;;23.71;55.88
3748;BME280;1889;50.058;8.688;2022-08-19T00:47:46;99786.81;;;23.67;56.03
3748;BME280;1889;50.058;8.688;2022-08-19T00:50:18;99789.83;;;23.63;56.26
3748;BME280;1889;50.058;8.688;2022-08-19T00:52:50;99783.38;;;23.65;56.20
3748;BME280;1889;50.058;8.688;2022-08-19T00:55:21;99785.95;;;23.67;56.15
3748;BME280;1889;50.058;8.688;2022-08-19T00:58:06;99785.36;;;23.74;55.88
3748;BME280;1889;50.058;8.688;2022-08-19T01:00:30;99772.14;;;23.71;56.01
3748;BME280;1889;50.058;8.688;2022-08-19T01:02:59;99769.67;;;23.57;56.44
3748;BME280;1889;50.058;8.688;2022-08-19T01:05:29;99765.75;;;23.55;56.54
3748;BME280;1889;50.058;8.688;2022-08-19T01:08:00;99766.95;;;23.51;56.67
3748;BME280;1889;50.058;8.688;2022-08-19T01:10:33;99765.05;;;23.59;56.51
3748;BME280;1889;50.058;8.688;2022-08-19T01:13:02;99755.53;;;23.66;56.21
3748;BME280;1889;50.058;8.688;2022-08-19T01:15:39;99766.50;;;23.69;56.14
3748;BME280;1889;50.058;8.688;2022-08-19T01:18:09;99766.73;;;23.60;56.49
3748;BME280;1889;50.058;8.688;2022-08-19T01:20:40;99769.83;;;23.67;56.31
3748;BME280;1889;50.058;8.688;2022-08-19T01:23:10;99770.27;;;23.61;56.54
3748;BME280;1889;50.058;8.688;2022-08-19T01:28:24;99765.42;;;23.77;55.99
3748;BME280;1889;50.058;8.688;2022-08-19T01:30:54;99767.14;;;23.78;55.92
3748;BME280;1889;50.058;8.688;2022-08-19T01:33:23;99762.50;;;23.85;55.71
3748;BME280;1889;50.058;8.688;2022-08-19T01:35:52;99754.55;;;23.84;55.80
3748;BME280;1889;50.058;8.688;2022-08-19T01:38:24;99754.55;;;23.84;55.80
3748;BME280;1889;50.058;8.688;2022-08-19T01:40:53;99754.33;;;23.81;55.82
3748;BME280;1889;50.058;8.688;2022-08-19T01:43:22;99749.78;;;23.76;56.01
3748;BME280;1889;50.058;8.688;2022-08-19T01:45:51;99753.47;;;23.86;55.70
3748;BME280;1889;50.058;8.688;2022-08-19T01:48:27;99758.13;;;23.90;55.58
3748;BME280;1889;50.058;8.688;2022-08-19T01:50:58;99760.53;;;23.76;55.87
3748;BME280;1889;50.058;8.688;2022-08-19T01:53:27;99764.83;;;23.73;55.99
3748;BME280;1889;50.058;8.688;2022-08-19T01:55:56;99756.87;;;23.77;55.91
3748;BME280;1889;50.058;8.688;2022-08-19T01:58:29;99765.19;;;23.85;55.75
3748;BME280;1889;50.058;8.688;2022-08-19T02:00:58;99765.56;;;23.92;55.61
3748;BME280;1889;50.058;8.688;2022-08-19T02:03:27;99770.11;;;23.97;55.54
3748;BME280;1889;50.058;8.688;2022-08-19T02:05:59;99770.00;;;23.99;55.43
3748;BME280;1889;50.058;8.688;2022-08-19T02:08:30;99766.53;;;23.85;55.72
3748;BME280;1889;50.058;8.688;2022-08-19T02:10:59;99765.08;;;23.81;55.80
3748;BME280;1889;50.058;8.688;2022-08-19T02:13:30;99760.53;;;23.65;56.32
3748;BME280;1889;50.058;8.688;2022-08-19T02:15:59;99755.86;;;23.56;56.64
3748;BME280;1889;50.058;8.688;2022-08-19T02:18:29;99764.56;;;23.71;56.11
3748;BME280;1889;50.058;8.688;2022-08-19T02:20:58;99775.46;;;23.75;55.97
3748;BME280;1889;50.058;8.688;2022-08-19T02:23:27;99789.77;;;23.75;55.96
3748;BME280;1889;50.058;8.688;2022-08-19T02:25:56;99791.96;;;23.81;55.82
3748;BME280;1889;50.058;8.688;2022-08-19T02:28:25;99791.70;;;23.84;55.73
3748;BME280;1889;50.058;8.688;2022-08-19T02:30:54;99788.91;;;23.80;55.93
3748;BME280;1889;50.058;8.688;2022-08-19T02:33:23;99794.66;;;23.81;55.89
3748;BME280;1889;50.058;8.688;2022-08-19T02:35:52;99787.33;;;23.83;55.80
3748;BME280;1889;50.058;8.688;2022-08-19T02:38:21;99793.02;;;23.68;56.43
3748;BME280;1889;50.058;8.688;2022-08-19T02:41:04;99790.84;;;23.78;56.12
3748;BME280;1889;50.058;8.688;2022-08-19T02:43:35;99796.22;;;23.84;55.88
3748;BME280;1889;50.058;8.688;2022-08-19T02:46:23;99784.88;;;23.80;56.00
3748;BME280;1889;50.058;8.688;2022-08-19T02:48:54;99781.70;;;23.81;56.02
3748;BME280;1889;50.058;8.688;2022-08-19T02:51:35;99783.04;;;23.86;55.93
3748;BME280;1889;50.058;8.688;2022-08-19T02:54:06;99781.09;;;23.88;55.95
3748;BME280;1889;50.058;8.688;2022-08-19T02:56:37;99785.88;;;23.90;55.87
3748;BME280;1889;50.058;8.688;2022-08-19T02:59:07;99785.13;;;23.94;55.78
3748;BME280;1889;50.058;8.688;2022-08-19T03:01:39;99788.64;;;23.78;56.32
3748;BME280;1889;50.058;8.688;2022-08-19T03:04:10;99788.75;;;23.65;56.82
3748;BME280;1889;50.058;8.688;2022-08-19T03:06:42;99779.98;;;23.74;56.47
3748;BME280;1889;50.058;8.688;2022-08-19T03:09:12;99772.63;;;23.76;56.33
3748;BME280;1889;50.058;8.688;2022-08-19T03:11:42;99772.74;;;23.69;56.67
3748;BME280;1889;50.058;8.688;2022-08-19T03:14:11;99777.63;;;23.64;56.99
3748;BME280;1889;50.058;8.688;2022-08-19T03:16:46;99783.86;;;23.70;56.71
3748;BME280;1889;50.058;8.688;2022-08-19T03:19:18;99793.42;;;23.74;56.55
3748;BME280;1889;50.058;8.688;2022-08-19T03:21:47;99795.14;;;23.75;56.58
3748;BME280;1889;50.058;8.688;2022-08-19T03:24:16;99797.67;;;23.71;56.79
3748;BME280;1889;50.058;8.688;2022-08-19T03:26:49;99793.87;;;23.68;56.99
3748;BME280;1889;50.058;8.688;2022-08-19T03:29:19;99794.50;;;23.72;56.88
3748;BME280;1889;50.058;8.688;2022-08-19T03:31:49;99801.00;;;23.75;56.82
3748;BME280;1889;50.058;8.688;2022-08-19T03:34:22;99806.07;;;23.61;57.26
3748;BME280;1889;50.058;8.688;2022-08-19T03:36:55;99801.33;;;23.65;57.17
3748;BME280;1889;50.058;8.688;2022-08-19T03:39:25;99801.08;;;23.68;57.01
3748;BME280;1889;50.058;8.688;2022-08-19T03:41:55;99801.22;;;23.66;57.08
3748;BME280;1889;50.058;8.688;2022-08-19T03:44:26;99793.53;;;23.67;57.08
3748;BME280;1889;50.058;8.688;2022-08-19T03:46:57;99796.92;;;23.64;57.26
3748;BME280;1889;50.058;8.688;2022-08-19T03:49:29;99790.58;;;23.65;57.21
3748;BME280;1889;50.058;8.688;2022-08-19T03:51:59;99794.87;;;23.67;57.15
3748;BME280;1889;50.058;8.688;2022-08-19T03:54:32;99787.37;;;23.59;57.48
3748;BME280;1889;50.058;8.688;2022-08-19T03:57:01;99790.23;;;23.45;58.01
3748;BME280;1889;50.058;8.688;2022-08-19T03:59:33;99787.31;;;23.43;58.05
3748;BME280;1889;50.058;8.688;2022-08-19T04:02:11;99794.07;;;23.48;57.74
3748;BME280;1889;50.058;8.688;2022-08-19T04:04:41;99801.09;;;23.44;58.09
3748;BME280;1889;50.058;8.688;2022-08-19T04:07:15;99804.13;;;23.34;58.54
3748;BME280;1889;50.058;8.688;2022-08-19T04:09:48;99811.35;;;23.44;58.10
3748;BME280;1889;50.058;8.688;2022-08-19T04:12:19;99812.67;;;23.33;58.66
3748;BME280;1889;50.058;8.688;2022-08-19T04:14:48;99815.66;;;23.23;59.11
3748;BME280;1889;50.058;8.688;2022-08-19T04:17:17;99815.10;;;23.36;58.50
3748;BME280;1889;50.058;8.688;2022-08-19T04:19:46;99815.18;;;23.24;58.98
3748;BME280;1889;50.058;8.688;2022-08-19T04:22:15;99818.44;;;23.16;59.36
3748;BME280;1889;50.058;8.688;2022-08-19T04:24:46;99815.02;;;23.19;59.20
3748;BME280;1889;50.058;8.688;2022-08-19T04:27:15;99813.55;;;23.15;59.35
3748;BME280;1889;50.058;8.688;2022-08-19T04:29:44;99804.75;;;23.13;59.46
3748;BME280;1889;50.058;8.688;2022-08-19T04:32:13;99801.97;;;23.20;59.17
3748;BME280;1889;50.058;8.688;2022-08-19T04:34:43;99796.94;;;23.10;59.58
3748;BME280;1889;50.058;8.688;2022-08-19T04:37:12;99797.75;;;23.05;59.73
3748;BME280;1889;50.058;8.688;2022-08-19T04:39:41;99802.80;;;23.10;59.50
3748;BME280;1889;50.058;8.688;2022-08-19T04:42:28;99802.44;;;23.14;59.35
3748;BME280;1889;50.058;8.688;2022-08-19T04:45:11;99813.68;;;23.19;59.12
3748;BME280;1889;50.058;8.688;2022-08-19T04:47:43;99817.87;;;23.24;58.98
3748;BME280;1889;50.058;8.688;2022-08-19T04:50:13;99818.37;;;23.29;58.86
3748;BME280;1889;50.058;8.688;2022-08-19T04:52:42;99817.41;;;23.35;58.64
3748;BME280;1889;50.058;8.688;2022-08-19T04:55:12;99817.07;;;23.34;58.76
3748;BME280;1889;50.058;8.688;2022-08-19T04:57:41;99820.15;;;23.41;58.58
3748;BME280;1889;50.058;8.688;2022-08-19T05:00:11;99823.65;;;23.36;58.78
3748;BME280;1889;50.058;8.688;2022-08-19T05:02:40;99824.86;;;23.32;58.97
3748;BME280;1889;50.058;8.688;2022-08-19T05:05:09;99823.52;;;23.32;58.96
3748;BME280;1889;50.058;8.688;2022-08-19T05:07:38;99819.17;;;23.42;58.72
3748;BME280;1889;50.058;8.688;2022-08-19T05:10:08;99819.17;;;23.42;58.65
3748;BME280;1889;50.058;8.688;2022-08-19T05:12:38;99816.61;;;23.46;58.50
3748;BME280;1889;50.058;8.688;2022-08-19T05:15:07;99811.80;;;23.51;58.38
3748;BME280;1889;50.058;8.688;2022-08-19T05:17:37;99813.53;;;23.34;58.99
3748;BME280;1889;50.058;8.688;2022-08-19T05:20:07;99816.01;;;23.42;58.67
3748;BME280;1889;50.058;8.688;2022-08-19T05:22:54;99824.28;;;23.39;58.81
3748;BME280;1889;50.058;8.688;2022-08-19T05:25:23;99827.61;;;23.43;58.71
3748;BME280;1889;50.058;8.688;2022-08-19T05:27:53;99827.45;;;23.39;58.81
3748;BME280;1889;50.058;8.688;2022-08-19T05:30:22;99826.75;;;23.42;58.69
3748;BME280;1889;50.058;8.688;2022-08-19T05:32:51;99824.97;;;23.48;58.62
3748;BME280;1889;50.058;8.688;2022-08-19T05:35:20;99823.89;;;23.51;58.56
3748;BME280;1889;50.058;8.688;2022-08-19T05:37:51;99827.73;;;23.47;58.74
3748;BME280;1889;50.058;8.688;2022-08-19T05:40:22;99831.97;;;23.56;58.55
3748;BME280;1889;50.058;8.688;2022-08-19T05:42:52;99836.12;;;23.61;58.45
3748;BME280;1889;50.058;8.688;2022-08-19T05:45:21;99839.08;;;23.45;59.11
3748;BME280;1889;50.058;8.688;2022-08-19T05:47:50;99834.94;;;23.46;59.08
3748;BME280;1889;50.058;8.688;2022-08-19T05:50:19;99824.39;;;23.56;58.81
3748;BME280;1889;50.058;8.688;2022-08-19T05:52:48;99833.84;;;23.67;58.46
3748;BME280;1889;50.058;8.688;2022-08-19T05:55:18;99833.69;;;23.63;58.54
3748;BME280;1889;50.058;8.688;2022-08-19T05:57:48;99844.53;;;23.50;58.95
3748;BME280;1889;50.058;8.688;2022-08-19T06:00:17;99842.81;;;23.49;58.91
3748;BME280;1889;50.058;8.688;2022-08-19T06:02:46;99846.38;;;23.61;58.61
3748;BME280;1889;50.058;8.688;2022-08-19T06:05:15;99852.38;;;23.59;58.67
3748;BME280;1889;50.058;8.688;2022-08-19T06:07:44;99861.05;;;23.44;59.02
3748;BME280;1889;50.058;8.688;2022-08-19T06:10:13;99864.09;;;23.58;58.70
3748;BME280;1889;50.058;8.688;2022-08-19T06:12:42;99858.86;;;23.68;58.39
3748;BME280;1889;50.058;8.688;2022-08-19T06:15:13;99868.25;;;23.62;58.51
3748;BME280;1889;50.058;8.688;2022-08-19T06:17:43;99862.08;;;23.73;58.31
3748;BME280;1889;50.058;8.688;2022-08-19T06:20:14;99867.36;;;23.85;58.03
3748;BME280;1889;50.058;8.688;2022-08-19T06:22:47;99875.30;;;23.81;57.99
3748;BME280;1889;50.058;8.688;2022-08-19T06:25:18;99878.09;;;23.74;57.98
3748;BME280;1889;50.058;8.688;2022-08-19T06:27:47;99882.77;;;23.83;57.78
3748;BME280;1889;50.058;8.688;2022-08-19T06:30:16;99888.91;;;23.96;57.40
3748;BME280;1889;50.058;8.688;2022-08-19T06:32:45;99888.59;;;23.77;57.66
3748;BME280;1889;50.058;8.688;2022-08-19T06:35:14;99894.72;;;23.79;57.74
3748;BME280;1889;50.058;8.688;2022-08-19T06:37:43;99897.08;;;23.89;57.51
3748;BME280;1889;50.058;8.688;2022-08-19T06:40:12;99907.20;;;23.86;57.46
3748;BME280;1889;50.058;8.688;2022-08-19T06:42:41;99907.95;;;23.93;57.20
3748;BME280;1889;50.058;8.688;2022-08-19T06:45:10;99914.73;;;24.10;57.01
3748;BME280;1889;50.058;8.688;2022-08-19T06:47:39;99918.66;;;24.12;56.83
3748;BME280;1889;50.058;8.688;2022-08-19T06:50:12;99912.20;;;24.20;56.61
3748;BME280;1889;50.058;8.688;2022-08-19T06:52:41;99901.17;;;24.17;56.62
3748;BME280;1889;50.058;8.688;2022-08-19T06:55:10;99906.28;;;24.04;56.82
3748;BME280;1889;50.058;8.688;2022-08-19T06:57:39;99911.27;;;24.26;56.49
3748;BME280;1889;50.058;8.688;2022-08-19T07:00:10;99919.22;;;24.28;56.50
3748;BME280;1889;50.058;8.688;2022-08-19T07:02:44;99927.92;;;24.37;56.28
3748;BME280;1889;50.058;8.688;2022-08-19T07:05:13;99917.76;;;24.41;56.19
3748;BME280;1889;50.058;8.688;2022-08-19T07:07:42;99911.81;;;24.48;56.13
3748;BME280;1889;50.058;8.688;2022-08-19T07:10:11;99908.38;;;24.46;55.79
3748;BME280;1889;50.058;8.688;2022-08-19T07:12:40;99916.05;;;24.28;56.26
3748;BME280;1889;50.058;8.688;2022-08-19T07:15:10;99915.67;;;24.22;56.33
3748;BME280;1889;50.058;8.688;2022-08-19T07:17:40;99921.12;;;24.15;56.48
3748;BME280;1889;50.058;8.688;2022-08-19T07:20:11;99925.27;;;24.08;56.65
3748;BME280;1889;50.058;8.688;2022-08-19T07:22:40;99928.94;;;24.18;56.45
3748;BME280;1889;50.058;8.688;2022-08-19T07:25:10;99931.84;;;24.39;55.89
3748;BME280;1889;50.058;8.688;2022-08-19T07:27:41;99929.90;;;24.52;55.63
3748;BME280;1889;50.058;8.688;2022-08-19T07:30:10;99931.13;;;24.53;55.55
3748;BME280;1889;50.058;8.688;2022-08-19T07:32:41;99926.86;;;24.56;55.33
3748;BME280;1889;50.058;8.688;2022-08-19T07:35:10;99923.55;;;24.53;55.32
3748;BME280;1889;50.058;8.688;2022-08-19T07:37:39;99927.23;;;24.68;54.93
3748;BME280;1889;50.058;8.688;2022-08-19T07:40:10;99922.34;;;24.79;54.45
3748;BME280;1889;50.058;8.688;2022-08-19T07:42:40;99925.02;;;24.85;54.25
3748;BME280;1889;50.058;8.688;2022-08-19T07:45:11;99933.86;;;24.98;53.75
3748;BME280;1889;50.058;8.688;2022-08-19T07:47:40;99934.61;;;24.94;53.51
3748;BME280;1889;50.058;8.688;2022-08-19T07:50:10;99931.80;;;24.96;53.29
3748;BME280;1889;50.058;8.688;2022-08-19T07:52:39;99929.30;;;24.76;52.71
3748;BME280;1889;50.058;8.688;2022-08-19T07:55:11;99932.29;;;24.95;52.98
3748;BME280;1889;50.058;8.688;2022-08-19T07:57:40;99927.49;;;24.99;52.58
3748;BME280;1889;50.058;8.688;2022-08-19T08:00:14;99938.03;;;24.91;52.60
3748;BME280;1889;50.058;8.688;2022-08-19T08:02:40;99935.59;;;24.93;52.39
3748;BME280;1889;50.058;8.688;2022-08-19T08:05:10;99935.33;;;25.19;52.40
3748;BME280;1889;50.058;8.688;2022-08-19T08:07:57;99937.72;;;25.38;51.94
3748;BME280;1889;50.058;8.688;2022-08-19T08:10:44;99938.83;;;25.41;51.33
3748;BME280;1889;50.058;8.688;2022-08-19T08:13:13;99942.88;;;25.41;50.93
3748;BME280;1889;50.058;8.688;2022-08-19T08:15:42;99940.44;;;25.33;51.39
3748;BME280;1889;50.058;8.688;2022-08-19T08:18:12;99934.95;;;25.29;51.19
3748;BME280;1889;50.058;8.688;2022-08-19T08:20:41;99935.53;;;25.43;51.14
3748;BME280;1889;50.058;8.688;2022-08-19T08:23:10;99937.59;;;25.51;50.80
3748;BME280;1889;50.058;8.688;2022-08-19T08:25:56;99932.24;;;25.23;50.63
3748;BME280;1889;50.058;8.688;2022-08-19T08:28:26;99930.55;;;25.17;51.25
3748;BME280;1889;50.058;8.688;2022-08-19T08:30:57;99940.16;;;25.47;50.92
3748;BME280;1889;50.058;8.688;2022-08-19T08:33:28;99942.84;;;25.64;50.67
3748;BME280;1889;50.058;8.688;2022-08-19T08:35:57;99945.06;;;25.53;50.20
3748;BME280;1889;50.058;8.688;2022-08-19T08:38:26;99955.86;;;25.59;50.18
3748;BME280;1889;50.058;8.688;2022-08-19T08:41:02;99944.06;;;25.65;50.21
3748;BME280;1889;50.058;8.688;2022-08-19T08:43:39;99948.49;;;25.50;49.96
3748;BME280;1889;50.058;8.688;2022-08-19T08:46:21;99936.49;;;25.59;49.98
3748;BME280;1889;50.058;8.688;2022-08-19T08:51:51;99952.02;;;25.56;50.15
3748;BME280;1889;50.058;8.688;2022-08-19T08:54:18;99945.54;;;25.69;50.03
3748;BME280;1889;50.058;8.688;2022-08-19T08:56:49;99946.27;;;25.66;49.80
3748;BME280;1889;50.058;8.688;2022-08-19T08:59:31;99932.91;;;25.64;49.89
3748;BME280;1889;50.058;8.688;2022-08-19T09:02:01;99930.34;;;25.63;49.91
3748;BME280;1889;50.058;8.688;2022-08-19T09:04:30;99929.91;;;25.84;49.61
3748;BME280;1889;50.058;8.688;2022-08-19T09:09:43;99932.63;;;26.05;48.71
3748;BME280;1889;50.058;8.688;2022-08-19T09:12:23;99924.23;;;26.13;48.65
3748;BME280;1889;50.058;8.688;2022-08-19T09:14:59;99930.45;;;26.19;48.20
3748;BME280;1889;50.058;8.688;2022-08-19T09:17:30;99928.38;;;26.44;48.02
3748;BME280;1889;50.058;8.688;2022-08-19T09:20:16;99922.48;;;26.44;46.92
3748;BME280;1889;50.058;8.688;2022-08-19T09:22:45;99919.70;;;26.40;47.17
3748;BME280;1889;50.058;8.688;2022-08-19T09:25:19;99925.09;;;25.93;47.72
3748;BME280;1889;50.058;8.688;2022-08-19T09:27:51;99928.20;;;25.83;47.69
3748;BME280;1889;50.058;8.688;2022-08-19T09:30:27;99925.55;;;25.98;47.90
3748;BME280;1889;50.058;8.688;2022-08-19T09:32:56;99923.07;;;26.33;47.68
3748;BME280;1889;50.058;8.688;2022-08-19T09:35:27;99926.70;;;26.58;47.21
3748;BME280;1889;50.058;8.688;2022-08-19T09:37:57;99927.93;;;26.75;46.52
3748;BME280;1889;50.058;8.688;2022-08-19T09:40:28;99922.84;;;26.66;45.60
3748;BME280;1889;50.058;8.688;2022-08-19T09:42:58;99929.04;;;26.57;45.77
3748;BME280;1889;50.058;8.688;2022-08-19T09:45:29;99916.75;;;26.89;45.81
3748;BME280;1889;50.058;8.688;2022-08-19T09:47:58;99912.71;;;26.58;45.59
3748;BME280;1889;50.058;8.688;2022-08-19T09:50:27;99905.55;;;26.63;46.04
3748;BME280;1889;50.058;8.688;2022-08-19T09:52:56;99909.41;;;26.85;45.69
3748;BME280;1889;50.058;8.688;2022-08-19T09:55:26;99906.84;;;26.69;45.46
3748;BME280;1889;50.058;8.688;2022-08-19T09:57:55;99910.70;;;26.76;45.31
3748;BME280;1889;50.058;8.688;2022-08-19T10:00:24;99914.91;;;26.89;45.06
3748;BME280;1889;50.058;8.688;2022-08-19T10:02:53;99910.88;;;27.05;44.79
3748;BME280;1889;50.058;8.688;2022-08-19T10:05:22;99912.75;;;27.14;44.94
3748;BME280;1889;50.058;8.688;2022-08-19T10:08:09;99913.81;;;26.86;45.23
3748;BME280;1889;50.058;8.688;2022-08-19T10:10:41;99906.08;;;26.87;45.15
3748;BME280;1889;50.058;8.688;2022-08-19T10:13:15;99920.58;;;26.71;45.28
3748;BME280;1889;50.058;8.688;2022-08-19T10:15:45;99920.89;;;26.63;45.19
3748;BME280;1889;50.058;8.688;2022-08-19T10:18:14;99920.94;;;26.72;45.06
3748;BME280;1889;50.058;8.688;2022-08-19T10:20:46;99922.86;;;26.60;44.49
3748;BME280;1889;50.058;8.688;2022-08-19T10:23:15;99924.99;;;26.72;44.51
3748;BME280;1889;50.058;8.688;2022-08-19T10:25:44;99918.36;;;26.86;44.74
3748;BME280;1889;50.058;8.688;2022-08-19T10:28:13;99914.75;;;26.96;44.58
3748;BME280;1889;50.058;8.688;2022-08-19T10:30:42;99917.34;;;26.92;45.01
3748;BME280;1889;50.058;8.688;2022-08-19T10:33:11;99910.75;;;26.85;45.29
3748;BME280;1889;50.058;8.688;2022-08-19T10:35:41;99913.88;;;26.66;45.59
3748;BME280;1889;50.058;8.688;2022-08-19T10:38:15;99917.87;;;26.71;45.35
3748;BME280;1889;50.058;8.688;2022-08-19T10:40:44;99911.88;;;26.68;45.05
3748;BME280;1889;50.058;8.688;2022-08-19T10:43:13;99901.18;;;26.56;44.96
3748;BME280;1889;50.058;8.688;2022-08-19T10:45:42;99896.33;;;26.96;44.54
3748;BME280;1889;50.058;8.688;2022-08-19T10:48:12;99903.14;;;26.85;44.51
3748;BME280;1889;50.058;8.688;2022-08-19T10:50:41;99906.81;;;27.05;44.64
3748;BME280;1889;50.058;8.688;2022-08-19T10:53:27;99901.61;;;27.22;44.36
3748;BME280;1889;50.058;8.688;2022-08-19T10:55:56;99905.00;;;27.15;44.01
3748;BME280;1889;50.058;8.688;2022-08-19T10:58:43;99900.28;;;27.32;43.98
3748;BME280;1889;50.058;8.688;2022-08-19T11:01:12;99881.31;;;27.57;43.90
3748;BME280;1889;50.058;8.688;2022-08-19T11:03:41;99882.48;;;27.54;42.96
3748;BME280;1889;50.058;8.688;2022-08-19T11:06:11;99888.75;;;27.30;43.56
3748;BME280;1889;50.058;8.688;2022-08-19T11:08:40;99882.28;;;27.37;43.76
3748;BME280;1889;50.058;8.688;2022-08-19T11:11:12;99873.07;;;27.58;43.45
3748;BME280;1889;50.058;8.688;2022-08-19T11:13:41;99870.02;;;27.86;43.19
3748;BME280;1889;50.058;8.688;2022-08-19T11:16:15;99874.84;;;27.83;42.73
3748;BME280;1889;50.058;8.688;2022-08-19T11:18:46;99874.94;;;27.87;42.39
3748;BME280;1889;50.058;8.688;2022-08-19T11:21:21;99864.03;;;27.83;42.59
3748;BME280;1889;50.058;8.688;2022-08-19T11:23:53;99861.30;;;28.12;42.03
3748;BME280;1889;50.058;8.688;2022-08-19T11:26:23;99840.34;;;28.23;42.04
3748;BME280;1889;50.058;8.688;2022-08-19T11:28:52;99845.30;;;28.04;41.44
3748;BME280;1889;50.058;8.688;2022-08-19T11:31:26;99840.03;;;27.84;41.77
3748;BME280;1889;50.058;8.688;2022-08-19T11:34:00;99839.45;;;27.90;41.59
3748;BME280;1889;50.058;8.688;2022-08-19T11:36:31;99835.75;;;27.81;42.03
3748;BME280;1889;50.058;8.688;2022-08-19T11:39:05;99827.62;;;28.20;41.68
3748;BME280;1889;50.058;8.688;2022-08-19T11:41:34;99825.78;;;28.34;41.35
3748;BME280;1889;50.058;8.688;2022-08-19T11:44:04;99832.94;;;28.25;41.15
3748;BME280;1889;50.058;8.688;2022-08-19T11:46:36;99834.31;;;28.16;41.17
3748;BME280;1889;50.058;8.688;2022-08-19T11:49:06;99834.78;;;28.25;40.91
3748;BME280;1889;50.058;8.688;2022-08-19T11:51:37;99833.44;;;28.05;40.66
3748;BME280;1889;50.058;8.688;2022-08-19T11:54:06;99845.58;;;27.92;41.05
3748;BME280;1889;50.058;8.688;2022-08-19T11:56:37;99841.24;;;27.95;40.67
3748;BME280;1889;50.058;8.688;2022-08-19T11:59:07;99843.50;;;27.99;40.17
3748;BME280;1889;50.058;8.688;2022-08-19T12:01:38;99838.86;;;27.73;40.66
3748;BME280;1889;50.058;8.688;2022-08-19T12:04:09;99841.16;;;27.52;41.07
3748;BME280;1889;50.058;8.688;2022-08-19T12:06:39;99831.77;;;27.95;40.66
3748;BME280;1889;50.058;8.688;2022-08-19T12:09:10;99826.19;;;28.16;40.49
3748;BME280;1889;50.058;8.688;2022-08-19T12:11:39;99833.42;;;28.48;40.28
3748;BME280;1889;50.058;8.688;2022-08-19T12:14:10;99841.02;;;28.58;39.11
3748;BME280;1889;50.058;8.688;2022-08-19T12:16:44;99841.48;;;28.67;38.28
3748;BME280;1889;50.058;8.688;2022-08-19T12:19:14;99836.73;;;28.56;38.43
3748;BME280;1889;50.058;8.688;2022-08-19T12:21:43;99838.55;;;28.51;38.55
3748;BME280;1889;50.058;8.688;2022-08-19T12:24:12;99831.91;;;28.36;38.79
3748;BME280;1889;50.058;8.688;2022-08-19T12:26:41;99829.20;;;28.36;39.08
3748;BME280;1889;50.058;8.688;2022-08-19T12:29:10;99831.06;;;28.35;39.33
3748;BME280;1889;50.058;8.688;2022-08-19T12:31:40;99827.78;;;28.32;39.01
3748;BME280;1889;50.058;8.688;2022-08-19T12:34:09;99819.77;;;28.40;38.82
3748;BME280;1889;50.058;8.688;2022-08-19T12:36:38;99816.23;;;28.67;38.30
3748;BME280;1889;50.058;8.688;2022-08-19T12:39:07;99815.83;;;28.85;37.63
3748;BME280;1889;50.058;8.688;2022-08-19T12:41:36;99809.84;;;29.27;37.37
3748;BME280;1889;50.058;8.688;2022-08-19T12:44:05;99818.07;;;29.21;36.48
3748;BME280;1889;50.058;8.688;2022-08-19T12:46:34;99821.89;;;28.83;37.22
3748;BME280;1889;50.058;8.688;2022-08-19T12:49:03;99820.33;;;29.39;37.06
3748;BME280;1889;50.058;8.688;2022-08-19T12:51:32;99815.08;;;29.59;36.05
3748;BME280;1889;50.058;8.688;2022-08-19T12:54:02;99807.73;;;29.91;35.55
3748;BME280;1889;50.058;8.688;2022-08-19T12:56:31;99813.60;;;29.83;34.77
3748;BME280;1889;50.058;8.688;2022-08-19T12:59:04;99823.31;;;29.89;35.08
3748;BME280;1889;50.058;8.688;2022-08-19T13:01:35;99816.75;;;29.74;34.87
3748;BME280;1889;50.058;8.688;2022-08-19T13:04:04;99815.27;;;29.80;34.75
3748;BME280;1889;50.058;8.688;2022-08-19T13:06:33;99816.42;;;29.77;34.65
3748;BME280;1889;50.058;8.688;2022-08-19T13:09:04;99816.06;;;29.54;35.08
3748;BME280;1889;50.058;8.688;2022-08-19T13:11:33;99816.69;;;29.48;35.17
3748;BME280;1889;50.058;8.688;2022-08-19T13:14:03;99819.20;;;29.46;35.39
3748;BME280;1889;50.058;8.688;2022-08-19T13:16:32;99820.78;;;29.35;35.09
3748;BME280;1889;50.058;8.688;2022-08-19T13:19:01;99817.07;;;29.22;34.84
3748;BME280;1889;50.058;8.688;2022-08-19T13:21:32;99816.02;;;29.01;34.85
3748;BME280;1889;50.058;8.688;2022-08-19T13:24:01;99816.84;;;29.15;35.20
3748;BME280;1889;50.058;8.688;2022-08-19T13:26:30;99817.07;;;29.22;35.02
3748;BME280;1889;50.058;8.688;2022-08-19T13:28:59;99828.39;;;29.17;34.85
3748;BME280;1889;50.058;8.688;2022-08-19T13:31:46;99825.15;;;29.00;35.09
3748;BME280;1889;50.058;8.688;2022-08-19T13:34:35;99830.84;;;29.11;35.42
3748;BME280;1889;50.058;8.688;2022-08-19T13:37:05;99844.06;;;28.96;35.23
3748;BME280;1889;50.058;8.688;2022-08-19T13:39:35;99836.41;;;28.78;35.44
3748;BME280;1889;50.058;8.688;2022-08-19T13:42:04;99840.98;;;28.68;35.59
3748;BME280;1889;50.058;8.688;2022-08-19T13:44:34;99842.86;;;28.81;35.51
3748;BME280;1889;50.058;8.688;2022-08-19T13:47:05;99843.37;;;28.71;35.49
3748;BME280;1889;50.058;8.688;2022-08-19T13:49:35;99839.88;;;28.74;35.67